Time;durP1;ratioP1;P1;durP2;ratioP2;P2;SDS_P1;SDS_P2;PMS_P1;PMS_P2;Temp;Humidity;BMP_temperature;BMP_pressure;BME280_temperature;BME280_humidity;BME280_pressure;Samples;Min_cycle;Max_cycle;Signal;HPM_P1;HPM_P2
2021/09/30 00:03:07;;;;;;;3.50;2.13;;;;;;;-146.32;100.00;58893.91;6259241;28;20224;-54
2021/09/30 00:06:30;;;;;;;3.23;2.33;;;;;;;-146.32;100.00;58893.91;6260558;28;20196;-52
2021/09/30 00:09:51;;;;;;;2.17;1.90;;;;;;;-146.32;100.00;58893.91;6249093;28;20216;-49
2021/09/30 00:13:23;;;;;;;5.20;2.47;;;;;;;-146.32;100.00;58893.91;6249270;28;20232;-51
2021/09/30 00:35:01;;;;;;;4.87;2.90;;;;;;;-146.32;100.00;58893.91;6259282;28;20660;-50
2021/09/30 00:42:07;;;;;;;4.67;2.10;;;;;;;-146.32;100.00;58893.91;6248346;28;20216;-51
2021/09/30 00:45:40;;;;;;;3.73;1.80;;;;;;;-146.32;100.00;58893.91;6252782;28;20196;-54
2021/09/30 00:49:09;;;;;;;4.97;2.30;;;;;;;-146.32;100.00;58893.91;6254333;28;20541;-52
2021/09/30 00:52:34;;;;;;;10.27;2.87;;;;;;;-146.32;100.00;58893.91;6255283;28;20635;-54
2021/09/30 00:56:07;;;;;;;4.37;2.47;;;;;;;-146.32;100.00;58893.91;6258656;28;20208;-55
2021/09/30 01:52:35;;;;;;;6.87;3.33;;;;;;;-146.32;100.00;58893.91;6250711;28;20209;-49
2021/09/30 02:25:49;;;;;;;5.97;1.73;;;;;;;-146.32;100.00;58893.91;6292497;28;20602;-48
2021/09/30 02:29:29;;;;;;;2.77;1.83;;;;;;;-146.32;100.00;58893.91;6264507;28;20259;-51
2021/09/30 02:58:58;;;;;;;5.50;2.10;;;;;;;-146.32;100.00;58893.91;6251165;28;20227;-53
2021/09/30 03:02:20;;;;;;;4.13;2.30;;;;;;;-146.32;100.00;58893.91;6278168;28;20228;-49
2021/09/30 03:05:41;;;;;;;7.63;2.27;;;;;;;-146.32;100.00;58893.91;6250584;28;20572;-55
2021/09/30 03:09:05;;;;;;;7.17;1.93;;;;;;;-146.32;100.00;58893.91;6260220;28;20223;-55
2021/09/30 03:12:28;;;;;;;6.37;1.97;;;;;;;-146.32;100.00;58893.91;6252538;28;20233;-53
2021/09/30 03:15:54;;;;;;;5.20;1.70;;;;;;;-146.32;100.00;58893.91;6254391;28;20208;-50
2021/09/30 03:19:31;;;;;;;5.23;1.60;;;;;;;-146.32;100.00;58893.91;6260581;28;20240;-51
2021/09/30 03:22:52;;;;;;;4.53;1.83;;;;;;;-146.32;100.00;58893.91;6264121;28;20661;-52
2021/09/30 03:26:16;;;;;;;7.83;1.70;;;;;;;-146.32;100.00;58893.91;6255929;28;20215;-50
2021/09/30 03:29:39;;;;;;;13.27;2.60;;;;;;;-146.32;100.00;58893.91;6246578;28;20228;-53
2021/09/30 03:33:04;;;;;;;5.97;1.90;;;;;;;-146.32;100.00;58893.91;6250050;28;20253;-54
2021/09/30 03:36:29;;;;;;;3.23;1.30;;;;;;;-146.32;100.00;58893.91;6247190;28;20185;-54
2021/09/30 03:39:50;;;;;;;4.30;1.87;;;;;;;-146.32;100.00;58893.91;6253428;28;20213;-54
2021/09/30 03:43:13;;;;;;;8.33;2.10;;;;;;;-146.32;100.00;58893.91;6251539;28;20219;-54
2021/09/30 03:46:34;;;;;;;8.27;2.07;;;;;;;-146.32;100.00;58893.91;6283317;28;20204;-54
2021/09/30 03:50:21;;;;;;;5.80;1.27;;;;;;;-146.32;100.00;58893.91;6250586;28;20221;-53
2021/09/30 03:53:55;;;;;;;7.10;1.57;;;;;;;-146.32;100.00;58893.91;6254289;28;20221;-51
2021/09/30 03:57:25;;;;;;;4.67;1.93;;;;;;;-146.32;100.00;58893.91;6249819;28;20236;-49
2021/09/30 04:00:48;;;;;;;4.30;1.47;;;;;;;-146.32;100.00;58893.91;6245898;28;20715;-54
2021/09/30 04:04:10;;;;;;;4.47;2.53;;;;;;;-146.32;100.00;58893.91;6283455;28;20243;-53
2021/09/30 04:07:31;;;;;;;8.50;2.50;;;;;;;-146.32;100.00;58893.91;6259976;28;20244;-55
2021/09/30 04:10:52;;;;;;;6.13;1.43;;;;;;;-146.32;100.00;58893.91;6246843;28;20239;-50
2021/09/30 04:14:15;;;;;;;6.20;2.13;;;;;;;-146.32;100.00;58893.91;6245615;28;20224;-53
2021/09/30 04:17:37;;;;;;;6.83;2.23;;;;;;;-146.32;100.00;58893.91;6244504;28;20236;-53
2021/09/30 04:20:58;;;;;;;4.43;1.87;;;;;;;-146.32;100.00;58893.91;6250248;28;20283;-53
2021/09/30 04:24:20;;;;;;;4.73;1.40;;;;;;;-146.32;100.00;58893.91;6267167;28;20258;-50
2021/09/30 04:27:41;;;;;;;9.27;2.53;;;;;;;-146.32;100.00;58893.91;6252003;28;20620;-55
2021/09/30 04:31:03;;;;;;;4.67;1.87;;;;;;;-146.32;100.00;58893.91;6258271;28;20223;-54
2021/09/30 04:34:41;;;;;;;8.03;1.70;;;;;;;-146.32;100.00;58893.91;6253885;28;20227;-53
2021/09/30 04:38:02;;;;;;;3.67;1.70;;;;;;;-146.32;100.00;58893.91;6246247;28;21033;-52
2021/09/30 04:41:23;;;;;;;5.70;1.73;;;;;;;-146.32;100.00;58893.91;6249795;28;20193;-51
2021/09/30 04:44:45;;;;;;;5.30;1.63;;;;;;;-146.32;100.00;58893.91;6243555;28;20232;-55
2021/09/30 04:48:07;;;;;;;6.23;1.90;;;;;;;-146.32;100.00;58893.91;6262245;28;20219;-55
2021/09/30 04:51:30;;;;;;;4.03;1.40;;;;;;;-146.32;100.00;58893.91;6258993;28;20185;-52
2021/09/30 04:54:51;;;;;;;5.80;1.87;;;;;;;-146.32;100.00;58893.91;6255293;28;20228;-51
2021/09/30 04:58:12;;;;;;;7.00;1.83;;;;;;;-146.32;100.00;58893.91;6258167;28;20228;-51
2021/09/30 05:01:34;;;;;;;3.00;1.60;;;;;;;-146.32;100.00;58893.91;6268433;28;20232;-51
2021/09/30 05:04:58;;;;;;;4.10;1.53;;;;;;;-146.32;100.00;58893.91;6254214;28;20220;-50
2021/09/30 05:08:20;;;;;;;6.67;2.20;;;;;;;-146.32;100.00;58893.91;6254652;28;20221;-51
2021/09/30 05:11:47;;;;;;;5.30;1.80;;;;;;;-146.32;100.00;58893.91;6253898;28;20292;-52
2021/09/30 05:15:09;;;;;;;5.93;1.67;;;;;;;-146.32;100.00;58893.91;6253479;28;20227;-55
2021/09/30 05:18:32;;;;;;;6.50;2.03;;;;;;;-146.32;100.00;58893.91;6247845;28;20614;-50
2021/09/30 05:21:53;;;;;;;11.83;2.30;;;;;;;-146.32;100.00;58893.91;6250509;28;20204;-52
2021/09/30 05:25:16;;;;;;;6.57;1.90;;;;;;;-146.32;100.00;58893.91;6267423;28;20199;-53
2021/09/30 05:28:37;;;;;;;3.77;1.67;;;;;;;-146.32;100.00;58893.91;6267769;28;20788;-50
2021/09/30 05:31:58;;;;;;;4.83;1.77;;;;;;;-146.32;100.00;58893.91;6258060;28;20486;-54
2021/09/30 05:35:44;;;;;;;6.93;2.30;;;;;;;-146.32;100.00;58893.91;6261588;28;20212;-52
2021/09/30 05:39:05;;;;;;;5.70;1.67;;;;;;;-146.32;100.00;58893.91;6255385;28;20462;-55
2021/09/30 05:42:29;;;;;;;6.47;2.20;;;;;;;-146.32;100.00;58893.91;6264874;28;20220;-52
2021/09/30 05:45:54;;;;;;;5.57;1.70;;;;;;;-146.32;100.00;58893.91;6249860;28;20184;-55
2021/09/30 05:49:15;;;;;;;3.97;1.47;;;;;;;-146.32;100.00;58893.91;6242540;28;20956;-56
2021/09/30 05:52:38;;;;;;;3.87;1.43;;;;;;;-146.32;100.00;58893.91;6247565;28;20614;-56
2021/09/30 05:56:10;;;;;;;4.07;1.80;;;;;;;-146.32;100.00;58893.91;6246700;28;20196;-53
2021/09/30 05:59:33;;;;;;;6.77;2.10;;;;;;;-146.32;100.00;58893.91;6247311;28;20494;-51
2021/09/30 06:10:33;;;;;;;5.53;1.40;;;;;;;-146.32;100.00;58893.91;6260655;28;20213;-50
2021/09/30 06:13:58;;;;;;;4.13;1.60;;;;;;;-146.32;100.00;58893.91;6258141;28;20224;-45
2021/09/30 06:17:21;;;;;;;3.80;1.70;;;;;;;-146.32;100.00;58893.91;6263205;28;20300;-51
2021/09/30 06:20:47;;;;;;;3.33;1.77;;;;;;;-146.32;100.00;58893.91;6264592;28;20199;-49
2021/09/30 06:24:10;;;;;;;5.33;2.53;;;;;;;-146.32;100.00;58893.91;6254781;28;20319;-50
2021/09/30 06:27:40;;;;;;;7.33;2.70;;;;;;;-146.32;100.00;58893.91;6262648;28;20239;-48
2021/09/30 06:31:02;;;;;;;4.57;1.77;;;;;;;-146.32;100.00;58893.91;6258224;28;20240;-55
2021/09/30 06:34:56;;;;;;;6.23;2.33;;;;;;;-146.32;100.00;58893.91;6251407;28;20224;-53
2021/09/30 06:38:28;;;;;;;10.17;1.83;;;;;;;-146.32;100.00;58893.91;6249495;28;20219;-53
2021/09/30 06:41:49;;;;;;;9.53;2.63;;;;;;;-146.32;100.00;58893.91;6251873;28;20626;-55
2021/09/30 06:45:45;;;;;;;4.57;1.93;;;;;;;-146.32;100.00;58893.91;6254362;28;20624;-50
2021/09/30 06:49:26;;;;;;;3.03;1.97;;;;;;;-146.32;100.00;58893.91;6246656;28;20487;-51
2021/09/30 06:53:17;;;;;;;5.17;1.93;;;;;;;-146.32;100.00;58893.91;6246378;28;20505;-53
2021/09/30 06:56:56;;;;;;;4.50;1.80;;;;;;;-146.32;100.00;58893.91;6503391;22;20260;-53
2021/09/30 07:00:37;;;;;;;4.77;2.20;;;;;;;-146.32;100.00;58893.91;6227531;28;20318;-50
2021/09/30 07:04:18;;;;;;;6.83;2.60;;;;;;;-146.32;100.00;58893.91;6207748;28;20232;-53
2021/09/30 07:08:01;;;;;;;6.93;1.80;;;;;;;-146.32;100.00;58893.91;6217603;28;20221;-52
2021/09/30 07:11:23;;;;;;;6.33;2.00;;;;;;;-146.32;100.00;58893.91;6237151;28;21259;-55
2021/09/30 07:14:44;;;;;;;5.67;2.03;;;;;;;-146.32;100.00;58893.91;6238844;28;20224;-48
2021/09/30 07:18:10;;;;;;;6.33;1.60;;;;;;;-146.32;100.00;58893.91;6229108;28;20236;-53
2021/09/30 07:21:33;;;;;;;3.43;1.70;;;;;;;-146.32;100.00;58893.91;6240130;28;20225;-52
2021/09/30 07:24:54;;;;;;;3.50;1.27;;;;;;;-146.32;100.00;58893.91;6240387;28;20233;-53
2021/09/30 07:28:19;;;;;;;6.33;1.50;;;;;;;-146.32;100.00;58893.91;6234804;28;20233;-47
2021/09/30 07:31:40;;;;;;;5.60;2.50;;;;;;;-146.32;100.00;58893.91;6238610;28;20205;-48
2021/09/30 07:35:01;;;;;;;6.60;2.10;;;;;;;-146.32;100.00;58893.91;6228565;28;20228;-54
2021/09/30 07:38:22;;;;;;;4.77;1.97;;;;;;;-146.32;100.00;58893.91;6241227;28;20361;-54
2021/09/30 07:41:45;;;;;;;4.77;1.73;;;;;;;-146.32;100.00;58893.91;6232410;28;20317;-47
2021/09/30 07:45:08;;;;;;;8.03;2.17;;;;;;;-146.32;100.00;58893.91;6231305;28;20304;-52
2021/09/30 07:48:29;;;;;;;3.57;1.93;;;;;;;-146.32;100.00;58893.91;6231756;28;20224;-52
2021/09/30 07:51:50;;;;;;;4.03;1.80;;;;;;;-146.32;100.00;58893.91;6232084;28;20197;-50
2021/09/30 07:55:12;;;;;;;5.67;2.17;;;;;;;-146.32;100.00;58893.91;6244780;28;20219;-51
2021/09/30 07:58:33;;;;;;;3.50;1.77;;;;;;;-146.32;100.00;58893.91;6230506;28;20224;-51
2021/09/30 08:01:55;;;;;;;4.57;1.67;;;;;;;-146.32;100.00;58893.91;6230082;28;20197;-51
2021/09/30 08:05:16;;;;;;;5.63;2.00;;;;;;;-146.32;100.00;58893.91;6233192;28;20197;-51
2021/09/30 08:08:37;;;;;;;4.90;2.17;;;;;;;-146.32;100.00;58893.91;6238381;28;20224;-62
2021/09/30 08:11:58;;;;;;;6.70;2.10;;;;;;;-146.32;100.00;58893.91;6228677;28;20185;-51
2021/09/30 08:15:19;;;;;;;3.80;1.13;;;;;;;-146.32;100.00;58893.91;6231833;28;20204;-55
2021/09/30 08:18:42;;;;;;;4.37;1.90;;;;;;;-146.32;100.00;58893.91;6236419;28;20229;-54
2021/09/30 08:22:03;;;;;;;4.63;2.43;;;;;;;-146.32;100.00;58893.91;6230183;28;20201;-51
2021/09/30 08:25:24;;;;;;;2.87;1.60;;;;;;;-146.32;100.00;58893.91;6230709;28;20189;-54
2021/09/30 08:28:48;;;;;;;3.10;1.80;;;;;;;-146.32;100.00;58893.91;6232776;28;20225;-51
2021/09/30 08:32:08;;;;;;;4.80;1.83;;;;;;;-146.32;100.00;58893.91;6225088;28;21617;-55
2021/09/30 08:35:32;;;;;;;5.70;1.47;;;;;;;-146.32;100.00;58893.91;6238312;28;20291;-57
2021/09/30 08:38:53;;;;;;;6.37;1.67;;;;;;;-146.32;100.00;58893.91;6231600;28;20259;-57
2021/09/30 08:42:14;;;;;;;3.93;1.60;;;;;;;-146.32;100.00;58893.91;6232877;28;20216;-50
2021/09/30 08:45:35;;;;;;;4.47;1.70;;;;;;;-146.32;100.00;58893.91;6233023;28;20602;-55
2021/09/30 08:48:56;;;;;;;4.17;1.57;;;;;;;-146.32;100.00;58893.91;6238053;28;20310;-55
2021/09/30 08:52:19;;;;;;;5.97;1.77;;;;;;;-146.32;100.00;58893.91;6230580;28;20732;-55
2021/09/30 08:55:40;;;;;;;13.37;2.37;;;;;;;-146.32;100.00;58893.91;6234181;28;20262;-51
2021/09/30 08:59:13;;;;;;;4.23;1.33;;;;;;;-146.32;100.00;58893.91;6243651;28;20613;-50
2021/09/30 09:02:41;;;;;;;7.67;1.87;;;;;;;-146.32;100.00;58893.91;6229297;28;20506;-53
2021/09/30 09:06:02;;;;;;;3.63;1.90;;;;;;;-146.32;100.00;58893.91;6234935;28;20203;-52
2021/09/30 09:09:27;;;;;;;7.40;1.77;;;;;;;-146.32;100.00;58893.91;6236788;28;20229;-55
2021/09/30 09:13:01;;;;;;;6.83;2.40;;;;;;;-146.32;100.00;58893.91;6214952;28;20236;-56
2021/09/30 09:16:24;;;;;;;4.07;2.03;;;;;;;-146.32;100.00;58893.91;6235623;28;20205;-52
2021/09/30 09:19:47;;;;;;;4.90;1.63;;;;;;;-146.32;100.00;58893.91;6238459;28;20645;-55
2021/09/30 09:23:10;;;;;;;4.30;1.70;;;;;;;-146.32;100.00;58893.91;6228939;28;20221;-52
2021/09/30 09:26:33;;;;;;;6.43;1.83;;;;;;;-146.32;100.00;58893.91;6232745;28;20233;-54
2021/09/30 09:29:54;;;;;;;2.90;1.27;;;;;;;-146.32;100.00;58893.91;6224575;28;20652;-48
2021/09/30 09:33:18;;;;;;;3.93;1.43;;;;;;;-146.32;100.00;58893.91;6230130;28;20248;-55
2021/09/30 09:36:39;;;;;;;9.37;2.33;;;;;;;-146.32;100.00;58893.91;6235912;28;20213;-51
2021/09/30 09:40:14;;;;;;;10.20;2.47;;;;;;;-146.32;100.00;58893.91;6236230;28;20319;-54
2021/09/30 09:43:41;;;;;;;5.00;1.97;;;;;;;-146.32;100.00;58893.91;6241606;28;20232;-52
2021/09/30 09:47:19;;;;;;;4.90;1.70;;;;;;;-146.32;100.00;58893.91;6232932;28;20224;-54
2021/09/30 09:50:40;;;;;;;7.53;2.13;;;;;;;-146.32;100.00;58893.91;6243660;28;20193;-54
2021/09/30 09:54:02;;;;;;;5.17;1.90;;;;;;;-146.32;100.00;58893.91;6243000;28;20260;-51
2021/09/30 09:57:23;;;;;;;3.97;1.50;;;;;;;-146.32;100.00;58893.91;6238615;28;20223;-51
2021/09/30 10:00:59;;;;;;;5.17;2.10;;;;;;;-146.32;100.00;58893.91;6233316;28;20224;-52
2021/09/30 10:04:20;;;;;;;5.77;2.47;;;;;;;16.04;54.43;101991.00;6237162;28;20237;-55
2021/09/30 10:07:41;;;;;;;9.73;2.37;;;;;;;16.83;52.26;101993.38;6235874;28;20224;-51
2021/09/30 10:11:03;;;;;;;7.40;2.40;;;;;;;16.62;52.16;101998.03;6231259;28;20353;-51
2021/09/30 10:14:24;;;;;;;8.27;2.43;;;;;;;15.66;54.62;101993.16;6228293;28;20704;-50
2021/09/30 10:17:46;;;;;;;8.07;2.20;;;;;;;15.33;55.91;102010.16;6230312;28;20259;-53
2021/09/30 10:21:07;;;;;;;4.27;1.97;;;;;;;16.33;52.73;101996.72;6240586;28;20489;-55
2021/09/30 10:24:28;;;;;;;4.83;2.17;;;;;;;16.98;51.61;102014.16;6234330;28;20625;-54
2021/09/30 10:27:56;;;;;;;6.63;2.40;;;;;;;17.06;50.00;102012.28;6234797;28;20228;-54
2021/09/30 10:31:23;;;;;;;5.13;1.80;;;;;;;17.17;49.93;102008.56;6224529;28;20279;-53
2021/09/30 10:34:48;;;;;;;6.03;1.88;;;;;;;20.31;42.42;101995.78;6232384;28;20569;-54
2021/09/30 10:38:17;;;;;;;6.70;2.40;;;;;;;20.16;41.09;101992.72;6235041;28;20232;-52
2021/09/30 10:41:38;;;;;;;8.05;2.42;;;;;;;18.74;44.13;102005.34;6233743;28;20299;-49
2021/09/30 10:45:11;;;;;;;7.00;1.70;;;;;;;18.72;46.03;102018.56;6228730;28;20541;-48
2021/09/30 10:48:41;;;;;;;7.88;2.10;;;;;;;19.52;44.97;102010.38;6237176;28;20817;-53
2021/09/30 10:52:24;;;;;;;5.90;2.55;;;;;;;17.28;49.16;102007.50;6228438;28;20204;-51
2021/09/30 10:55:45;;;;;;;7.00;1.83;;;;;;;18.80;45.20;102005.22;6233739;28;20393;-53
2021/09/30 10:59:45;;;;;;;7.63;2.53;;;;;;;17.63;48.02;102018.25;6233870;28;20227;-54
2021/09/30 11:03:22;;;;;;;13.02;3.60;;;;;;;19.28;42.82;102013.66;6224466;28;20228;-54
2021/09/30 11:06:43;;;;;;;6.38;2.03;;;;;;;20.10;41.93;102005.22;6236402;28;20205;-54
2021/09/30 11:10:21;;;;;;;4.47;2.15;;;;;;;18.34;44.89;102017.69;6231592;28;20209;-53
2021/09/30 11:13:45;;;;;;;4.93;2.20;;;;;;;17.00;48.90;102022.03;6236131;28;20725;-54
2021/09/30 11:17:07;;;;;;;6.53;2.25;;;;;;;16.62;49.92;102040.13;6227990;28;20284;-55
2021/09/30 11:20:32;;;;;;;8.60;2.60;;;;;;;18.77;44.03;102026.38;6237798;28;20307;-53
2021/09/30 11:23:53;;;;;;;8.00;2.65;;;;;;;17.85;44.84;102051.22;6232204;28;20225;-54
2021/09/30 11:27:33;;;;;;;6.22;2.88;;;;;;;16.93;48.13;102056.34;6231853;28;20319;-51
2021/09/30 11:31:21;;;;;;;7.32;2.20;;;;;;;20.30;40.39;102041.63;6234281;28;20197;-50
2021/09/30 11:34:50;;;;;;;5.75;1.90;;;;;;;20.70;39.95;102035.16;6238599;28;20228;-54
2021/09/30 11:38:14;;;;;;;10.05;2.72;;;;;;;22.44;34.51;102043.13;6228367;28;20578;-56
2021/09/30 11:41:37;;;;;;;3.78;1.70;;;;;;;20.02;40.04;102034.53;6238135;28;20213;-54
2021/09/30 11:45:01;;;;;;;5.82;1.58;;;;;;;19.77;40.17;102061.66;6231888;28;20247;-51
2021/09/30 11:48:22;;;;;;;5.38;1.42;;;;;;;18.03;43.07;102055.25;6239941;28;20224;-54
2021/09/30 11:51:45;;;;;;;6.13;1.85;;;;;;;18.37;42.51;102053.66;6235711;28;20189;-51
2021/09/30 11:55:15;;;;;;;5.38;2.50;;;;;;;17.78;43.48;102056.63;6233192;28;20567;-52
2021/09/30 11:58:36;;;;;;;4.85;1.63;;;;;;;17.72;44.18;102065.50;6229622;28;20628;-54
2021/09/30 12:02:02;;;;;;;3.67;2.38;;;;;;;18.21;43.62;102064.53;6229610;28;20221;-50
2021/09/30 12:05:28;;;;;;;5.65;1.80;;;;;;;21.33;35.79;102059.53;6231356;28;20192;-52
2021/09/30 12:08:58;;;;;;;4.47;1.58;;;;;;;19.43;39.42;102065.22;6234829;28;20323;-53
2021/09/30 12:12:26;;;;;;;7.97;2.35;;;;;;;20.46;37.38;102072.03;6230941;28;20327;-51
2021/09/30 12:15:48;;;;;;;3.97;1.38;;;;;;;22.39;33.42;102068.97;6233034;28;20192;-49
2021/09/30 12:19:11;;;;;;;6.53;2.08;;;;;;;23.58;30.97;102059.66;6236536;28;20233;-54
2021/09/30 12:22:35;;;;;;;4.95;2.50;;;;;;;23.84;29.91;102065.63;6232877;28;20640;-54
2021/09/30 12:25:56;;;;;;;3.90;1.70;;;;;;;21.82;34.06;102087.84;6232128;28;20589;-53
2021/09/30 12:29:18;;;;;;;8.48;2.55;;;;;;;22.75;31.56;102055.16;6230421;28;20220;-49
2021/09/30 12:32:40;;;;;;;6.03;2.35;;;;;;;21.85;31.93;102073.63;6231355;28;20233;-52
2021/09/30 12:36:07;;;;;;;6.85;1.85;;;;;;;18.25;39.67;102075.91;6235738;28;20216;-54
2021/09/30 12:39:30;;;;;;;6.55;2.33;;;;;;;18.98;39.23;102090.97;6231183;28;20564;-52
2021/09/30 12:43:01;;;;;;;5.65;2.45;;;;;;;22.51;32.79;102076.47;6235779;28;20232;-52
2021/09/30 12:46:21;;;;;;;5.03;1.83;;;;;;;21.12;34.38;102071.72;6232941;28;20208;-55
2021/09/30 12:49:58;;;;;;;8.35;2.63;;;;;;;21.07;33.97;102068.34;6233730;28;20233;-51
2021/09/30 12:53:22;;;;;;;5.10;2.10;;;;;;;19.90;35.19;102069.28;6232246;28;20231;-53
2021/09/30 12:56:43;;;;;;;6.43;1.65;;;;;;;20.82;34.07;102071.81;6233857;28;20488;-54
2021/09/30 13:00:07;;;;;;;4.03;2.05;;;;;;;22.80;32.11;102061.16;6229044;28;20229;-60
2021/09/30 13:03:28;;;;;;;4.80;2.55;;;;;;;20.89;33.47;102067.19;6221792;28;20613;-59
2021/09/30 13:06:57;;;;;;;3.00;2.20;;;;;;;19.75;35.51;102074.06;6228105;28;20201;-61
2021/09/30 13:10:27;;;;;;;5.68;2.05;;;;;;;20.80;33.29;102077.16;6229319;28;20228;-61
2021/09/30 13:14:13;;;;;;;8.05;2.45;;;;;;;20.29;34.67;102074.31;6229842;28;20288;-61
2021/09/30 13:17:34;;;;;;;4.00;2.28;;;;;;;21.23;33.29;102069.59;6226942;28;20468;-60
2021/09/30 13:21:07;;;;;;;6.07;2.72;;;;;;;18.01;38.13;102082.53;6236571;28;20224;-61
2021/09/30 13:24:29;;;;;;;6.43;2.25;;;;;;;16.87;41.04;102085.38;6224979;28;20232;-58
2021/09/30 13:27:53;;;;;;;5.70;1.75;;;;;;;17.49;40.39;102085.22;6227279;28;21983;-57
2021/09/30 13:31:14;;;;;;;3.92;2.00;;;;;;;19.21;36.67;102077.22;6234011;28;21556;-57
2021/09/30 13:34:35;;;;;;;6.82;2.88;;;;;;;19.48;35.89;102067.72;6232602;28;20229;-55
2021/09/30 13:37:58;;;;;;;5.93;2.28;;;;;;;18.86;37.90;102063.13;6230786;28;21559;-57
2021/09/30 13:41:19;;;;;;;3.17;1.73;;;;;;;18.42;37.72;102065.00;6228707;28;20468;-57
2021/09/30 13:44:42;;;;;;;6.13;2.03;;;;;;;18.06;38.10;102080.69;6224275;28;20359;-57
2021/09/30 13:48:03;;;;;;;6.88;1.67;;;;;;;20.03;34.58;102066.22;6226949;28;20232;-57
2021/09/30 13:51:24;;;;;;;4.10;2.00;;;;;;;18.22;38.17;102073.31;6239076;28;20197;-54
2021/09/30 13:54:45;;;;;;;4.20;2.15;;;;;;;18.73;38.28;102053.72;6231567;28;20224;-57
2021/09/30 13:58:06;;;;;;;5.07;2.00;;;;;;;20.09;35.27;102054.63;6231168;28;20605;-54
2021/09/30 14:01:29;;;;;;;4.57;1.83;;;;;;;20.16;36.84;102050.00;6235260;28;20241;-51
2021/09/30 14:04:49;;;;;;;7.45;2.92;;;;;;;18.80;37.20;102052.72;6220624;28;20551;-46
2021/09/30 14:08:12;;;;;;;3.90;1.95;;;;;;;19.50;36.63;102054.47;6225761;28;20236;-47
2021/09/30 14:11:33;;;;;;;3.85;2.10;;;;;;;17.59;39.98;102053.47;6226028;28;20228;-48
2021/09/30 14:14:53;;;;;;;4.95;1.65;;;;;;;17.16;40.75;102051.56;6240657;28;20229;-49
2021/09/30 14:18:16;;;;;;;7.20;2.85;;;;;;;18.30;38.77;102042.41;6231087;28;20225;-50
2021/09/30 14:21:37;;;;;;;7.93;2.60;;;;;;;18.16;39.41;102053.22;6232455;28;20213;-52
2021/09/30 14:24:58;;;;;;;6.63;1.80;;;;;;;18.15;39.84;102034.81;6207419;28;20219;-51
2021/09/30 14:28:19;;;;;;;6.10;2.38;;;;;;;17.64;40.51;102048.97;6234458;28;20228;-52
2021/09/30 14:31:40;;;;;;;6.95;2.10;;;;;;;18.07;39.60;102037.63;6236468;28;20550;-50
2021/09/30 14:35:02;;;;;;;5.43;2.58;;;;;;;16.97;40.61;102028.22;6236208;28;20256;-51
2021/09/30 14:38:23;;;;;;;3.58;2.05;;;;;;;17.63;39.93;102039.34;6230629;28;20240;-51
2021/09/30 14:41:45;;;;;;;5.10;1.60;;;;;;;16.48;41.57;102048.22;6233690;28;20209;-48
2021/09/30 14:45:07;;;;;;;3.08;1.63;;;;;;;16.07;43.27;102036.50;6233928;28;20613;-49
2021/09/30 14:48:27;;;;;;;3.73;1.60;;;;;;;16.48;43.64;102037.69;6231185;28;20228;-49
2021/09/30 14:51:49;;;;;;;5.18;1.55;;;;;;;16.18;43.25;102056.50;6231516;28;22143;-50
2021/09/30 14:55:11;;;;;;;4.95;2.25;;;;;;;16.80;41.93;102053.88;6231202;28;20233;-51
2021/09/30 14:58:33;;;;;;;4.93;1.47;;;;;;;16.28;42.94;102048.47;6229872;28;20313;-48
2021/09/30 15:01:53;;;;;;;6.13;2.83;;;;;;;16.19;43.13;102047.72;6233859;28;20238;-52
2021/09/30 15:05:14;;;;;;;8.00;1.97;;;;;;;16.59;43.24;102047.19;6231525;28;20529;-50
2021/09/30 15:08:37;;;;;;;4.78;1.70;;;;;;;16.54;42.70;102034.13;6235693;28;20245;-51
2021/09/30 15:11:58;;;;;;;2.67;1.53;;;;;;;15.74;43.44;102050.88;6224648;28;20193;-54
2021/09/30 15:15:19;;;;;;;4.00;1.50;;;;;;;16.02;43.79;102061.09;6230734;28;20189;-55
2021/09/30 15:18:52;;;;;;;5.37;2.47;;;;;;;16.20;43.40;102059.97;6231935;28;20232;-54
2021/09/30 15:22:13;;;;;;;4.77;2.73;;;;;;;16.74;41.89;102055.72;6226452;28;20224;-53
2021/09/30 15:25:37;;;;;;;9.43;2.83;;;;;;;16.49;42.36;102063.09;6233513;28;21543;-50
2021/09/30 15:28:59;;;;;;;5.53;1.53;;;;;;;16.36;42.42;102058.03;6237931;28;20562;-51
2021/09/30 15:32:20;;;;;;;4.07;2.03;;;;;;;16.89;41.96;102062.53;6236361;28;20307;-50
2021/09/30 15:35:42;;;;;;;6.10;2.70;;;;;;;16.92;42.06;102062.50;6236190;28;20189;-53
2021/09/30 15:39:06;;;;;;;6.83;1.63;;;;;;;17.03;41.80;102066.72;6227794;28;20228;-49
2021/09/30 15:42:28;;;;;;;4.33;2.00;;;;;;;16.43;42.49;102054.44;6224939;28;20236;-52
2021/09/30 15:45:49;;;;;;;5.63;1.30;;;;;;;15.88;43.98;102059.50;6241534;28;20216;-51
2021/09/30 15:49:10;;;;;;;5.77;2.60;;;;;;;16.00;42.92;102058.47;6238133;28;20229;-52
2021/09/30 15:52:31;;;;;;;8.73;2.40;;;;;;;15.87;44.37;102057.72;6235223;28;20503;-53
2021/09/30 15:55:53;;;;;;;4.90;1.67;;;;;;;16.41;43.86;102056.22;6224227;28;20232;-52
2021/09/30 15:59:15;;;;;;;4.90;2.37;;;;;;;16.13;44.72;102064.47;6234966;28;20228;-51
2021/09/30 16:02:36;;;;;;;3.53;1.87;;;;;;;15.94;44.98;102063.81;6230095;28;20237;-51
2021/09/30 16:05:57;;;;;;;2.43;1.10;;;;;;;15.78;44.69;102063.13;6232858;28;20236;-50
2021/09/30 16:09:18;;;;;;;3.43;1.67;;;;;;;15.87;44.88;102063.00;6232070;28;20224;-51
2021/09/30 16:12:40;;;;;;;15.43;2.97;;;;;;;15.64;45.04;102059.72;6242025;28;20236;-49
2021/09/30 16:16:03;;;;;;;4.90;1.80;;;;;;;15.49;45.71;102069.50;6226876;28;20562;-49
2021/09/30 16:19:24;;;;;;;3.10;1.20;;;;;;;15.36;45.94;102070.50;6237723;28;20793;-48
2021/09/30 16:22:45;;;;;;;3.23;1.50;;;;;;;15.56;45.62;102068.53;6229423;28;20229;-53
2021/09/30 16:26:07;;;;;;;5.77;2.03;;;;;;;15.44;46.18;102089.66;6230909;28;20197;-52
2021/09/30 16:29:28;;;;;;;3.77;1.50;;;;;;;15.39;46.11;102083.56;6230981;28;20236;-54
2021/09/30 16:32:51;;;;;;;3.60;2.03;;;;;;;15.14;46.29;102073.31;6232608;28;20228;-52
2021/09/30 16:36:12;;;;;;;3.63;1.63;;;;;;;14.80;47.08;102074.44;6229016;28;20260;-53
2021/09/30 16:39:33;;;;;;;3.43;2.10;;;;;;;14.89;47.14;102067.38;6230921;28;20235;-51
2021/09/30 16:42:54;;;;;;;5.70;3.17;;;;;;;15.03;46.76;102072.50;6239513;28;21757;-52
2021/09/30 16:46:16;;;;;;;5.47;2.77;;;;;;;15.18;47.17;102065.38;6236973;28;20232;-52
2021/09/30 16:49:38;;;;;;;4.90;2.93;;;;;;;14.88;47.36;102062.13;6229400;28;20228;-52
2021/09/30 16:52:59;;;;;;;5.03;2.37;;;;;;;15.02;46.93;102068.13;6224393;28;20241;-50
2021/09/30 16:56:20;;;;;;;6.87;2.87;;;;;;;14.74;46.99;102065.72;6226458;28;20236;-50
2021/09/30 16:59:41;;;;;;;8.47;2.27;;;;;;;14.54;47.63;102078.06;6234274;28;20232;-50
2021/09/30 17:03:02;;;;;;;4.67;2.00;;;;;;;14.49;47.98;102069.34;6225732;28;20232;-52
2021/09/30 17:06:24;;;;;;;6.40;2.63;;;;;;;14.74;47.71;102089.31;6224476;28;20205;-53
2021/09/30 17:09:45;;;;;;;5.93;2.00;;;;;;;14.86;47.79;102079.63;6229621;28;20606;-46
2021/09/30 17:13:07;;;;;;;9.40;2.63;;;;;;;14.46;48.46;102090.31;6227236;28;20224;-51
2021/09/30 17:16:28;;;;;;;5.80;2.77;;;;;;;14.34;48.92;102092.09;6232275;28;20200;-53
2021/09/30 17:19:49;;;;;;;4.77;2.23;;;;;;;14.53;48.53;102089.41;6227834;28;20236;-50
2021/09/30 17:23:11;;;;;;;7.87;3.20;;;;;;;14.38;48.50;102088.63;6211423;28;20618;-51
2021/09/30 17:26:32;;;;;;;9.70;2.60;;;;;;;14.65;47.90;102091.13;6231103;28;20225;-54
2021/09/30 17:29:53;;;;;;;4.23;1.60;;;;;;;14.59;48.33;102086.78;6225200;28;20232;-49
2021/09/30 17:33:15;;;;;;;4.20;1.47;;;;;;;14.32;48.83;102085.13;6223119;28;20260;-52
2021/09/30 17:36:37;;;;;;;4.57;1.80;;;;;;;14.34;48.52;102079.00;6227807;28;20209;-49
2021/09/30 17:40:00;;;;;;;4.80;1.93;;;;;;;14.41;48.41;102092.09;6233910;28;20303;-53
2021/09/30 17:43:21;;;;;;;4.33;2.10;;;;;;;14.57;48.09;102083.31;6191074;28;20971;-48
2021/09/30 17:46:42;;;;;;;6.17;2.03;;;;;;;14.48;48.61;102088.53;6225689;28;20229;-47
2021/09/30 17:50:05;;;;;;;6.37;2.13;;;;;;;14.57;48.34;102093.78;6225950;28;20639;-49
2021/09/30 17:53:26;;;;;;;4.17;1.40;;;;;;;14.17;49.05;102093.91;6231424;28;20228;-51
2021/09/30 17:56:48;;;;;;;3.20;1.60;;;;;;;14.35;48.56;102088.63;6234828;28;21930;-55
2021/09/30 18:00:13;;;;;;;3.27;1.37;;;;;;;14.65;48.13;102089.38;6230961;28;20473;-54